Senneville, Canada
Current Conditions -  °F | °C
As of 1:00 PM on Friday 24 Oct 2014 (Local Time) from CYUL Reporting Station
Broken Clouds Broken Clouds  
Wind Chill: 52°   Ceiling: 3700
Heat Index: 52°   Visibility: 15mi
Dew Point: 39°   Wind: 10mph
Humidity: 62%   Direction: 30°NNE
Pressure: 29.87"   Gusts: NA
Location:  45.43°N, 73.97°W
Report Text: CYUL 241700Z 03009KT 15SM BKN037 BKN048 11/04 A2987 RMK SC6SC1 SLP115
Loading
Personal Weather Stations






























Interactive Weather Map
Tropical Storm Tracking
New forecast layout! Learn more

10-Day Weather Forecast

Advertisements
Track Severe Weather on mobile